sensor_id;sensor_type;location;lat;lon;timestamp;temperature;humidity
52245;DHT22;55759;51.586;-1.758;2023-06-14T00:00:11;16.60;63.50
52245;DHT22;55759;51.586;-1.758;2023-06-14T00:02:40;16.50;63.80
52245;DHT22;55759;51.586;-1.758;2023-06-14T00:05:06;16.50;64.00
52245;DHT22;55759;51.586;-1.758;2023-06-14T00:07:39;16.40;65.00
52245;DHT22;55759;51.586;-1.758;2023-06-14T00:10:09;16.40;65.40
52245;DHT22;55759;51.586;-1.758;2023-06-14T00:12:35;16.30;66.10
52245;DHT22;55759;51.586;-1.758;2023-06-14T00:15:01;16.20;66.70
52245;DHT22;55759;51.586;-1.758;2023-06-14T00:17:27;16.10;66.40
52245;DHT22;55759;51.586;-1.758;2023-06-14T00:19:58;16.10;66.20
52245;DHT22;55759;51.586;-1.758;2023-06-14T00:22:23;16.00;66.70
52245;DHT22;55759;51.586;-1.758;2023-06-14T00:24:50;16.00;66.80
52245;DHT22;55759;51.586;-1.758;2023-06-14T00:27:16;15.90;67.00
52245;DHT22;55759;51.586;-1.758;2023-06-14T00:29:41;15.80;67.00
52245;DHT22;55759;51.586;-1.758;2023-06-14T00:32:07;15.80;66.20
52245;DHT22;55759;51.586;-1.758;2023-06-14T00:34:33;15.70;66.40
52245;DHT22;55759;51.586;-1.758;2023-06-14T00:36:59;15.70;66.80
52245;DHT22;55759;51.586;-1.758;2023-06-14T00:39:24;15.60;67.70
52245;DHT22;55759;51.586;-1.758;2023-06-14T00:41:50;15.50;68.30
52245;DHT22;55759;51.586;-1.758;2023-06-14T00:44:16;15.40;69.20
52245;DHT22;55759;51.586;-1.758;2023-06-14T00:46:42;15.30;68.60
52245;DHT22;55759;51.586;-1.758;2023-06-14T00:49:08;15.30;68.50
52245;DHT22;55759;51.586;-1.758;2023-06-14T00:51:33;15.20;68.60
52245;DHT22;55759;51.586;-1.758;2023-06-14T00:53:59;15.10;67.30
52245;DHT22;55759;51.586;-1.758;2023-06-14T00:56:25;15.10;66.70
52245;DHT22;55759;51.586;-1.758;2023-06-14T00:58:52;15.10;67.00
52245;DHT22;55759;51.586;-1.758;2023-06-14T01:01:18;15.00;67.00
52245;DHT22;55759;51.586;-1.758;2023-06-14T01:03:44;14.90;66.60
52245;DHT22;55759;51.586;-1.758;2023-06-14T01:08:40;14.80;66.20
52245;DHT22;55759;51.586;-1.758;2023-06-14T01:11:12;14.80;65.20
52245;DHT22;55759;51.586;-1.758;2023-06-14T01:13:39;14.70;64.70
52245;DHT22;55759;51.586;-1.758;2023-06-14T01:16:06;14.70;63.80
52245;DHT22;55759;51.586;-1.758;2023-06-14T01:18:33;14.70;63.50
52245;DHT22;55759;51.586;-1.758;2023-06-14T01:20:59;14.70;63.30
52245;DHT22;55759;51.586;-1.758;2023-06-14T01:23:24;14.70;63.00
52245;DHT22;55759;51.586;-1.758;2023-06-14T01:25:58;14.60;63.40
52245;DHT22;55759;51.586;-1.758;2023-06-14T01:28:24;14.60;62.80
52245;DHT22;55759;51.586;-1.758;2023-06-14T01:30:52;14.60;63.10
52245;DHT22;55759;51.586;-1.758;2023-06-14T01:33:19;14.50;64.00
52245;DHT22;55759;51.586;-1.758;2023-06-14T01:35:46;14.40;63.90
52245;DHT22;55759;51.586;-1.758;2023-06-14T01:38:15;14.30;64.00
52245;DHT22;55759;51.586;-1.758;2023-06-14T01:40:42;14.20;65.00
52245;DHT22;55759;51.586;-1.758;2023-06-14T01:43:10;14.10;65.40
52245;DHT22;55759;51.586;-1.758;2023-06-14T01:45:36;14.10;66.00
52245;DHT22;55759;51.586;-1.758;2023-06-14T01:48:02;14.10;66.00
52245;DHT22;55759;51.586;-1.758;2023-06-14T01:50:28;14.00;66.20
52245;DHT22;55759;51.586;-1.758;2023-06-14T01:52:54;13.80;65.80
52245;DHT22;55759;51.586;-1.758;2023-06-14T01:55:19;13.80;66.10
52245;DHT22;55759;51.586;-1.758;2023-06-14T01:57:47;13.70;66.40
52245;DHT22;55759;51.586;-1.758;2023-06-14T02:00:13;13.60;66.50
52245;DHT22;55759;51.586;-1.758;2023-06-14T02:02:40;13.40;67.40
52245;DHT22;55759;51.586;-1.758;2023-06-14T02:05:06;13.40;67.40
52245;DHT22;55759;51.586;-1.758;2023-06-14T02:07:31;13.30;67.60
52245;DHT22;55759;51.586;-1.758;2023-06-14T02:09:57;13.20;67.00
52245;DHT22;55759;51.586;-1.758;2023-06-14T02:12:22;13.10;67.10
52245;DHT22;55759;51.586;-1.758;2023-06-14T02:14:48;13.00;67.60
52245;DHT22;55759;51.586;-1.758;2023-06-14T02:17:14;12.90;67.10
52245;DHT22;55759;51.586;-1.758;2023-06-14T02:19:40;12.80;66.40
52245;DHT22;55759;51.586;-1.758;2023-06-14T02:22:06;12.80;66.50
52245;DHT22;55759;51.586;-1.758;2023-06-14T02:24:32;12.70;66.50
52245;DHT22;55759;51.586;-1.758;2023-06-14T02:26:57;12.60;67.10
52245;DHT22;55759;51.586;-1.758;2023-06-14T02:29:23;12.50;67.60
52245;DHT22;55759;51.586;-1.758;2023-06-14T02:31:48;12.40;68.30
52245;DHT22;55759;51.586;-1.758;2023-06-14T02:34:15;12.40;67.40
52245;DHT22;55759;51.586;-1.758;2023-06-14T02:36:42;12.20;68.30
52245;DHT22;55759;51.586;-1.758;2023-06-14T02:39:08;12.20;68.20
52245;DHT22;55759;51.586;-1.758;2023-06-14T02:41:37;12.10;68.10
52245;DHT22;55759;51.586;-1.758;2023-06-14T02:44:02;12.00;68.40
52245;DHT22;55759;51.586;-1.758;2023-06-14T02:46:28;12.00;68.30
52245;DHT22;55759;51.586;-1.758;2023-06-14T02:48:53;11.90;69.00
52245;DHT22;55759;51.586;-1.758;2023-06-14T02:51:19;11.80;69.30
52245;DHT22;55759;51.586;-1.758;2023-06-14T02:53:45;11.70;69.50
52245;DHT22;55759;51.586;-1.758;2023-06-14T02:56:10;11.70;70.10
52245;DHT22;55759;51.586;-1.758;2023-06-14T02:58:37;11.60;70.40
52245;DHT22;55759;51.586;-1.758;2023-06-14T03:01:03;11.50;70.80
52245;DHT22;55759;51.586;-1.758;2023-06-14T03:03:29;11.50;71.00
52245;DHT22;55759;51.586;-1.758;2023-06-14T03:05:55;11.40;71.40
52245;DHT22;55759;51.586;-1.758;2023-06-14T03:08:21;11.40;71.70
52245;DHT22;55759;51.586;-1.758;2023-06-14T03:10:48;11.30;72.30
52245;DHT22;55759;51.586;-1.758;2023-06-14T03:13:17;11.30;72.80
52245;DHT22;55759;51.586;-1.758;2023-06-14T03:15:46;11.20;73.30
52245;DHT22;55759;51.586;-1.758;2023-06-14T03:18:13;11.10;73.60
52245;DHT22;55759;51.586;-1.758;2023-06-14T03:20:40;11.10;74.30
52245;DHT22;55759;51.586;-1.758;2023-06-14T03:23:06;11.10;74.50
52245;DHT22;55759;51.586;-1.758;2023-06-14T03:25:32;11.00;74.90
52245;DHT22;55759;51.586;-1.758;2023-06-14T03:28:01;11.00;75.20
52245;DHT22;55759;51.586;-1.758;2023-06-14T03:30:26;10.90;75.50
52245;DHT22;55759;51.586;-1.758;2023-06-14T03:32:52;10.80;75.80
52245;DHT22;55759;51.586;-1.758;2023-06-14T03:35:18;10.80;76.10
52245;DHT22;55759;51.586;-1.758;2023-06-14T03:37:44;10.80;76.30
52245;DHT22;55759;51.586;-1.758;2023-06-14T03:40:11;10.70;76.70
52245;DHT22;55759;51.586;-1.758;2023-06-14T03:42:36;10.60;77.00
52245;DHT22;55759;51.586;-1.758;2023-06-14T03:45:02;10.60;77.30
52245;DHT22;55759;51.586;-1.758;2023-06-14T03:47:28;10.60;77.60
52245;DHT22;55759;51.586;-1.758;2023-06-14T03:49:53;10.50;77.60
52245;DHT22;55759;51.586;-1.758;2023-06-14T03:52:19;10.50;77.90
52245;DHT22;55759;51.586;-1.758;2023-06-14T03:54:44;10.40;78.10
52245;DHT22;55759;51.586;-1.758;2023-06-14T03:57:11;10.40;78.30
52245;DHT22;55759;51.586;-1.758;2023-06-14T03:59:37;10.40;78.60
52245;DHT22;55759;51.586;-1.758;2023-06-14T04:02:03;10.40;78.80
52245;DHT22;55759;51.586;-1.758;2023-06-14T04:04:28;10.30;79.00
52245;DHT22;55759;51.586;-1.758;2023-06-14T04:06:57;10.30;79.20
52245;DHT22;55759;51.586;-1.758;2023-06-14T04:09:24;10.30;79.20
52245;DHT22;55759;51.586;-1.758;2023-06-14T04:11:53;10.20;79.20
52245;DHT22;55759;51.586;-1.758;2023-06-14T04:14:19;10.30;79.40
52245;DHT22;55759;51.586;-1.758;2023-06-14T04:16:45;10.20;79.50
52245;DHT22;55759;51.586;-1.758;2023-06-14T04:19:11;10.20;79.70
52245;DHT22;55759;51.586;-1.758;2023-06-14T04:21:36;10.20;79.80
52245;DHT22;55759;51.586;-1.758;2023-06-14T04:24:02;10.20;80.00
52245;DHT22;55759;51.586;-1.758;2023-06-14T04:26:28;10.20;80.10
52245;DHT22;55759;51.586;-1.758;2023-06-14T04:28:55;10.20;80.10
52245;DHT22;55759;51.586;-1.758;2023-06-14T04:31:22;10.20;80.20
52245;DHT22;55759;51.586;-1.758;2023-06-14T04:33:50;10.30;80.30
52245;DHT22;55759;51.586;-1.758;2023-06-14T04:36:18;10.20;80.40
52245;DHT22;55759;51.586;-1.758;2023-06-14T04:38:44;10.30;80.60
52245;DHT22;55759;51.586;-1.758;2023-06-14T04:41:10;10.30;80.60
52245;DHT22;55759;51.586;-1.758;2023-06-14T04:43:37;10.30;80.60
52245;DHT22;55759;51.586;-1.758;2023-06-14T04:46:06;10.40;80.80
52245;DHT22;55759;51.586;-1.758;2023-06-14T04:48:36;10.50;80.80
52245;DHT22;55759;51.586;-1.758;2023-06-14T04:51:02;10.60;80.90
52245;DHT22;55759;51.586;-1.758;2023-06-14T04:53:29;10.60;81.00
52245;DHT22;55759;51.586;-1.758;2023-06-14T04:55:54;10.60;81.00
52245;DHT22;55759;51.586;-1.758;2023-06-14T04:58:20;10.70;80.90
52245;DHT22;55759;51.586;-1.758;2023-06-14T05:00:46;10.80;81.00
52245;DHT22;55759;51.586;-1.758;2023-06-14T05:03:11;10.90;81.00
52245;DHT22;55759;51.586;-1.758;2023-06-14T05:05:39;11.00;80.90
52245;DHT22;55759;51.586;-1.758;2023-06-14T05:08:05;11.00;80.90
52245;DHT22;55759;51.586;-1.758;2023-06-14T05:10:32;11.10;80.60
52245;DHT22;55759;51.586;-1.758;2023-06-14T05:13:00;11.20;80.60
52245;DHT22;55759;51.586;-1.758;2023-06-14T05:15:25;11.30;80.60
52245;DHT22;55759;51.586;-1.758;2023-06-14T05:17:52;11.40;80.20
52245;DHT22;55759;51.586;-1.758;2023-06-14T05:20:21;11.50;80.30
52245;DHT22;55759;51.586;-1.758;2023-06-14T05:22:48;11.60;80.10
52245;DHT22;55759;51.586;-1.758;2023-06-14T05:25:17;11.60;80.10
52245;DHT22;55759;51.586;-1.758;2023-06-14T05:27:42;11.70;79.90
52245;DHT22;55759;51.586;-1.758;2023-06-14T05:30:08;11.70;79.90
52245;DHT22;55759;51.586;-1.758;2023-06-14T05:32:34;11.90;79.90
52245;DHT22;55759;51.586;-1.758;2023-06-14T05:35:00;11.90;79.70
52245;DHT22;55759;51.586;-1.758;2023-06-14T05:37:25;12.00;79.60
52245;DHT22;55759;51.586;-1.758;2023-06-14T05:39:51;12.10;79.60
52245;DHT22;55759;51.586;-1.758;2023-06-14T05:42:16;12.10;79.30
52245;DHT22;55759;51.586;-1.758;2023-06-14T05:44:42;12.20;79.40
52245;DHT22;55759;51.586;-1.758;2023-06-14T05:47:07;12.40;79.20
52245;DHT22;55759;51.586;-1.758;2023-06-14T05:49:33;12.40;79.10
52245;DHT22;55759;51.586;-1.758;2023-06-14T05:51:59;12.50;79.00
52245;DHT22;55759;51.586;-1.758;2023-06-14T05:54:24;12.60;78.90
52245;DHT22;55759;51.586;-1.758;2023-06-14T05:56:50;12.70;78.80
52245;DHT22;55759;51.586;-1.758;2023-06-14T05:59:15;12.80;78.50
52245;DHT22;55759;51.586;-1.758;2023-06-14T06:01:41;12.90;78.30
52245;DHT22;55759;51.586;-1.758;2023-06-14T06:04:07;13.00;78.40
52245;DHT22;55759;51.586;-1.758;2023-06-14T06:06:33;13.10;78.20
52245;DHT22;55759;51.586;-1.758;2023-06-14T06:08:58;13.20;78.20
52245;DHT22;55759;51.586;-1.758;2023-06-14T06:11:24;13.20;77.50
52245;DHT22;55759;51.586;-1.758;2023-06-14T06:13:50;13.40;77.40
52245;DHT22;55759;51.586;-1.758;2023-06-14T06:16:15;13.50;77.40
52245;DHT22;55759;51.586;-1.758;2023-06-14T06:18:41;13.60;77.40
52245;DHT22;55759;51.586;-1.758;2023-06-14T06:21:07;13.70;77.10
52245;DHT22;55759;51.586;-1.758;2023-06-14T06:23:32;13.80;76.70
52245;DHT22;55759;51.586;-1.758;2023-06-14T06:25:58;13.90;76.90
52245;DHT22;55759;51.586;-1.758;2023-06-14T06:28:23;14.00;76.40
52245;DHT22;55759;51.586;-1.758;2023-06-14T06:30:49;14.10;76.30
52245;DHT22;55759;51.586;-1.758;2023-06-14T06:33:15;14.20;75.90
52245;DHT22;55759;51.586;-1.758;2023-06-14T06:35:41;14.30;76.00
52245;DHT22;55759;51.586;-1.758;2023-06-14T06:38:08;14.50;75.70
52245;DHT22;55759;51.586;-1.758;2023-06-14T06:40:35;14.60;75.50
52245;DHT22;55759;51.586;-1.758;2023-06-14T06:43:01;14.70;74.80
52245;DHT22;55759;51.586;-1.758;2023-06-14T06:45:27;14.80;75.00
52245;DHT22;55759;51.586;-1.758;2023-06-14T06:47:53;15.00;74.90
52245;DHT22;55759;51.586;-1.758;2023-06-14T06:50:19;15.10;73.80
52245;DHT22;55759;51.586;-1.758;2023-06-14T06:52:45;15.30;73.60
52245;DHT22;55759;51.586;-1.758;2023-06-14T06:55:10;15.50;73.30
52245;DHT22;55759;51.586;-1.758;2023-06-14T06:57:36;15.50;73.40
52245;DHT22;55759;51.586;-1.758;2023-06-14T07:00:02;15.70;72.60
52245;DHT22;55759;51.586;-1.758;2023-06-14T07:02:31;15.90;72.10
52245;DHT22;55759;51.586;-1.758;2023-06-14T07:04:56;16.10;72.00
52245;DHT22;55759;51.586;-1.758;2023-06-14T07:07:22;16.20;71.80
52245;DHT22;55759;51.586;-1.758;2023-06-14T07:09:47;16.20;71.90
52245;DHT22;55759;51.586;-1.758;2023-06-14T07:12:13;16.30;72.20
52245;DHT22;55759;51.586;-1.758;2023-06-14T07:14:39;16.40;70.90
52245;DHT22;55759;51.586;-1.758;2023-06-14T07:17:05;16.50;69.50
52245;DHT22;55759;51.586;-1.758;2023-06-14T07:19:31;16.70;70.20
52245;DHT22;55759;51.586;-1.758;2023-06-14T07:21:57;16.80;69.60
52245;DHT22;55759;51.586;-1.758;2023-06-14T07:24:23;16.80;68.90
52245;DHT22;55759;51.586;-1.758;2023-06-14T07:26:49;16.90;68.30
52245;DHT22;55759;51.586;-1.758;2023-06-14T07:29:14;16.90;68.50
52245;DHT22;55759;51.586;-1.758;2023-06-14T07:31:41;16.90;68.40
52245;DHT22;55759;51.586;-1.758;2023-06-14T07:34:07;17.00;69.30
52245;DHT22;55759;51.586;-1.758;2023-06-14T07:36:32;17.10;69.40
52245;DHT22;55759;51.586;-1.758;2023-06-14T07:38:58;17.30;68.20
52245;DHT22;55759;51.586;-1.758;2023-06-14T07:41:24;17.40;68.40
52245;DHT22;55759;51.586;-1.758;2023-06-14T07:43:51;17.50;68.90
52245;DHT22;55759;51.586;-1.758;2023-06-14T07:46:16;17.60;68.30
52245;DHT22;55759;51.586;-1.758;2023-06-14T07:48:42;17.70;67.50
52245;DHT22;55759;51.586;-1.758;2023-06-14T07:51:08;17.80;67.90
52245;DHT22;55759;51.586;-1.758;2023-06-14T07:53:33;17.90;65.80
52245;DHT22;55759;51.586;-1.758;2023-06-14T07:55:59;17.90;65.90
52245;DHT22;55759;51.586;-1.758;2023-06-14T07:58:25;18.00;65.10
52245;DHT22;55759;51.586;-1.758;2023-06-14T08:00:51;18.10;64.90
52245;DHT22;55759;51.586;-1.758;2023-06-14T08:03:16;18.20;64.10
52245;DHT22;55759;51.586;-1.758;2023-06-14T08:05:43;18.40;63.40
52245;DHT22;55759;51.586;-1.758;2023-06-14T08:08:09;18.50;63.20
52245;DHT22;55759;51.586;-1.758;2023-06-14T08:10:34;18.50;62.30
52245;DHT22;55759;51.586;-1.758;2023-06-14T08:13:00;18.60;62.50
52245;DHT22;55759;51.586;-1.758;2023-06-14T08:15:25;18.70;62.40
52245;DHT22;55759;51.586;-1.758;2023-06-14T08:17:51;18.80;61.80
52245;DHT22;55759;51.586;-1.758;2023-06-14T08:20:17;18.80;61.40
52245;DHT22;55759;51.586;-1.758;2023-06-14T08:22:42;18.80;60.80
52245;DHT22;55759;51.586;-1.758;2023-06-14T08:25:08;18.90;61.30
52245;DHT22;55759;51.586;-1.758;2023-06-14T08:27:34;19.00;61.80
52245;DHT22;55759;51.586;-1.758;2023-06-14T08:30:00;19.10;62.70
52245;DHT22;55759;51.586;-1.758;2023-06-14T08:32:25;19.20;62.30
52245;DHT22;55759;51.586;-1.758;2023-06-14T08:34:51;19.40;62.00
52245;DHT22;55759;51.586;-1.758;2023-06-14T08:37:16;19.50;61.40
52245;DHT22;55759;51.586;-1.758;2023-06-14T08:39:42;19.70;59.60
52245;DHT22;55759;51.586;-1.758;2023-06-14T08:42:09;19.80;59.70
52245;DHT22;55759;51.586;-1.758;2023-06-14T08:44:35;19.90;60.90
52245;DHT22;55759;51.586;-1.758;2023-06-14T08:47:01;20.00;60.30
52245;DHT22;55759;51.586;-1.758;2023-06-14T08:49:29;20.10;58.90
52245;DHT22;55759;51.586;-1.758;2023-06-14T08:51:59;20.30;58.80
52245;DHT22;55759;51.586;-1.758;2023-06-14T08:54:27;20.40;57.10
52245;DHT22;55759;51.586;-1.758;2023-06-14T08:56:55;20.60;57.90
52245;DHT22;55759;51.586;-1.758;2023-06-14T08:59:26;20.70;54.70
52245;DHT22;55759;51.586;-1.758;2023-06-14T09:01:54;20.80;54.60
52245;DHT22;55759;51.586;-1.758;2023-06-14T09:04:28;20.80;55.10
52245;DHT22;55759;51.586;-1.758;2023-06-14T09:06:55;20.80;57.00
52245;DHT22;55759;51.586;-1.758;2023-06-14T09:09:21;21.00;54.80
52245;DHT22;55759;51.586;-1.758;2023-06-14T09:11:49;21.10;54.20
52245;DHT22;55759;51.586;-1.758;2023-06-14T09:14:15;21.10;53.90
52245;DHT22;55759;51.586;-1.758;2023-06-14T09:16:40;21.20;55.90
52245;DHT22;55759;51.586;-1.758;2023-06-14T09:19:06;21.40;56.00
52245;DHT22;55759;51.586;-1.758;2023-06-14T09:21:33;21.60;56.60
52245;DHT22;55759;51.586;-1.758;2023-06-14T09:23:59;21.70;55.20
52245;DHT22;55759;51.586;-1.758;2023-06-14T09:26:25;21.90;52.80
52245;DHT22;55759;51.586;-1.758;2023-06-14T09:28:53;22.10;55.30
52245;DHT22;55759;51.586;-1.758;2023-06-14T09:31:19;22.30;53.00
52245;DHT22;55759;51.586;-1.758;2023-06-14T09:33:45;22.40;52.00
52245;DHT22;55759;51.586;-1.758;2023-06-14T09:36:22;22.50;53.00
52245;DHT22;55759;51.586;-1.758;2023-06-14T09:38:52;22.60;50.50
52245;DHT22;55759;51.586;-1.758;2023-06-14T09:41:18;22.60;52.00
52245;DHT22;55759;51.586;-1.758;2023-06-14T09:43:43;22.70;51.40
52245;DHT22;55759;51.586;-1.758;2023-06-14T09:46:10;22.90;51.80
52245;DHT22;55759;51.586;-1.758;2023-06-14T09:48:36;22.90;50.90
52245;DHT22;55759;51.586;-1.758;2023-06-14T09:51:02;23.00;51.10
52245;DHT22;55759;51.586;-1.758;2023-06-14T09:53:29;23.10;50.90
52245;DHT22;55759;51.586;-1.758;2023-06-14T09:55:55;23.10;48.70
52245;DHT22;55759;51.586;-1.758;2023-06-14T09:58:23;23.30;48.30
52245;DHT22;55759;51.586;-1.758;2023-06-14T10:00:51;23.30;49.00
52245;DHT22;55759;51.586;-1.758;2023-06-14T10:03:21;23.40;48.40
52245;DHT22;55759;51.586;-1.758;2023-06-14T10:05:47;23.50;48.50
52245;DHT22;55759;51.586;-1.758;2023-06-14T10:08:14;23.60;48.10
52245;DHT22;55759;51.586;-1.758;2023-06-14T10:10:42;23.90;46.70
52245;DHT22;55759;51.586;-1.758;2023-06-14T10:13:07;24.10;48.20
52245;DHT22;55759;51.586;-1.758;2023-06-14T10:18:00;24.70;46.20
52245;DHT22;55759;51.586;-1.758;2023-06-14T10:20:30;25.20;45.10
52245;DHT22;55759;51.586;-1.758;2023-06-14T10:22:58;26.10;42.90
52245;DHT22;55759;51.586;-1.758;2023-06-14T10:25:26;27.10;42.00
52245;DHT22;55759;51.586;-1.758;2023-06-14T10:27:52;28.20;38.80
52245;DHT22;55759;51.586;-1.758;2023-06-14T10:30:17;29.00;38.70
52245;DHT22;55759;51.586;-1.758;2023-06-14T10:33:03;30.00;35.70
52245;DHT22;55759;51.586;-1.758;2023-06-14T10:35:29;30.80;34.20
52245;DHT22;55759;51.586;-1.758;2023-06-14T10:37:54;31.50;33.40
52245;DHT22;55759;51.586;-1.758;2023-06-14T10:40:30;32.20;32.80
52245;DHT22;55759;51.586;-1.758;2023-06-14T10:42:55;33.10;30.50
52245;DHT22;55759;51.586;-1.758;2023-06-14T10:45:21;33.80;30.00
52245;DHT22;55759;51.586;-1.758;2023-06-14T10:47:46;34.30;29.40
52245;DHT22;55759;51.586;-1.758;2023-06-14T10:50:14;34.80;27.80
52245;DHT22;55759;51.586;-1.758;2023-06-14T10:52:41;35.20;27.00
52245;DHT22;55759;51.586;-1.758;2023-06-14T10:55:08;35.90;27.20
52245;DHT22;55759;51.586;-1.758;2023-06-14T10:57:40;36.80;26.40
52245;DHT22;55759;51.586;-1.758;2023-06-14T11:00:06;37.50;26.10
52245;DHT22;55759;51.586;-1.758;2023-06-14T11:05:26;38.60;23.30
52245;DHT22;55759;51.586;-1.758;2023-06-14T11:10:40;40.20;23.60
52245;DHT22;55759;51.586;-1.758;2023-06-14T11:13:09;40.90;23.20
52245;DHT22;55759;51.586;-1.758;2023-06-14T11:15:35;41.60;20.80
52245;DHT22;55759;51.586;-1.758;2023-06-14T11:18:04;40.90;21.10
52245;DHT22;55759;51.586;-1.758;2023-06-14T11:20:31;40.90;21.40
52245;DHT22;55759;51.586;-1.758;2023-06-14T11:22:57;41.00;21.90
52245;DHT22;55759;51.586;-1.758;2023-06-14T11:25:22;41.40;21.80
52245;DHT22;55759;51.586;-1.758;2023-06-14T11:27:49;42.10;20.70
52245;DHT22;55759;51.586;-1.758;2023-06-14T11:30:15;42.50;20.80
52245;DHT22;55759;51.586;-1.758;2023-06-14T11:32:41;43.30;20.20
52245;DHT22;55759;51.586;-1.758;2023-06-14T11:35:07;43.50;18.80
52245;DHT22;55759;51.586;-1.758;2023-06-14T11:37:35;43.40;18.80
52245;DHT22;55759;51.586;-1.758;2023-06-14T11:40:02;43.70;19.20
52245;DHT22;55759;51.586;-1.758;2023-06-14T11:42:33;43.80;19.40
52245;DHT22;55759;51.586;-1.758;2023-06-14T11:44:59;44.30;19.80
52245;DHT22;55759;51.586;-1.758;2023-06-14T11:47:30;45.00;18.90
52245;DHT22;55759;51.586;-1.758;2023-06-14T11:49:58;45.60;19.20
52245;DHT22;55759;51.586;-1.758;2023-06-14T11:52:23;46.00;18.00
52245;DHT22;55759;51.586;-1.758;2023-06-14T11:54:49;45.80;17.50
52245;DHT22;55759;51.586;-1.758;2023-06-14T11:57:15;45.50;18.30
52245;DHT22;55759;51.586;-1.758;2023-06-14T11:59:43;46.10;18.20
52245;DHT22;55759;51.586;-1.758;2023-06-14T12:02:10;47.00;18.00
52245;DHT22;55759;51.586;-1.758;2023-06-14T12:04:40;47.70;16.70
52245;DHT22;55759;51.586;-1.758;2023-06-14T12:07:09;47.60;16.30
52245;DHT22;55759;51.586;-1.758;2023-06-14T12:12:24;47.70;15.50
52245;DHT22;55759;51.586;-1.758;2023-06-14T12:14:51;47.00;16.30
52245;DHT22;55759;51.586;-1.758;2023-06-14T12:17:16;46.80;17.00
52245;DHT22;55759;51.586;-1.758;2023-06-14T12:19:43;47.20;16.70
52245;DHT22;55759;51.586;-1.758;2023-06-14T12:22:09;47.50;16.30
52245;DHT22;55759;51.586;-1.758;2023-06-14T12:24:37;47.40;16.60
52245;DHT22;55759;51.586;-1.758;2023-06-14T12:27:05;47.50;16.70
52245;DHT22;55759;51.586;-1.758;2023-06-14T12:29:31;47.80;16.30
52245;DHT22;55759;51.586;-1.758;2023-06-14T12:31:57;47.30;16.90
52245;DHT22;55759;51.586;-1.758;2023-06-14T12:34:23;47.60;16.50
52245;DHT22;55759;51.586;-1.758;2023-06-14T12:36:52;47.60;15.80
52245;DHT22;55759;51.586;-1.758;2023-06-14T12:39:18;47.60;16.60
52245;DHT22;55759;51.586;-1.758;2023-06-14T12:41:44;48.20;15.60
52245;DHT22;55759;51.586;-1.758;2023-06-14T12:44:10;47.90;15.80
52245;DHT22;55759;51.586;-1.758;2023-06-14T12:46:36;48.00;16.20
52245;DHT22;55759;51.586;-1.758;2023-06-14T12:49:02;48.30;15.80
52245;DHT22;55759;51.586;-1.758;2023-06-14T12:51:27;48.50;15.70
52245;DHT22;55759;51.586;-1.758;2023-06-14T12:53:53;48.40;16.10
52245;DHT22;55759;51.586;-1.758;2023-06-14T12:56:19;48.90;15.50
52245;DHT22;55759;51.586;-1.758;2023-06-14T12:58:45;49.50;15.30
52245;DHT22;55759;51.586;-1.758;2023-06-14T13:01:10;49.10;15.60
52245;DHT22;55759;51.586;-1.758;2023-06-14T13:03:36;49.10;15.70
52245;DHT22;55759;51.586;-1.758;2023-06-14T13:06:02;49.00;15.20
52245;DHT22;55759;51.586;-1.758;2023-06-14T13:08:29;49.20;15.20
52245;DHT22;55759;51.586;-1.758;2023-06-14T13:10:54;49.80;14.90
52245;DHT22;55759;51.586;-1.758;2023-06-14T13:13:20;50.30;14.80
52245;DHT22;55759;51.586;-1.758;2023-06-14T13:15:46;50.00;14.70
52245;DHT22;55759;51.586;-1.758;2023-06-14T13:18:12;49.10;15.00
52245;DHT22;55759;51.586;-1.758;2023-06-14T13:20:38;48.70;15.60
52245;DHT22;55759;51.586;-1.758;2023-06-14T13:23:04;49.30;15.60
52245;DHT22;55759;51.586;-1.758;2023-06-14T13:25:33;49.70;15.40
52245;DHT22;55759;51.586;-1.758;2023-06-14T13:27:58;50.00;15.00
52245;DHT22;55759;51.586;-1.758;2023-06-14T13:30:24;50.50;15.30
52245;DHT22;55759;51.586;-1.758;2023-06-14T13:32:50;51.20;14.90
52245;DHT22;55759;51.586;-1.758;2023-06-14T13:35:20;52.00;14.30
52245;DHT22;55759;51.586;-1.758;2023-06-14T13:37:45;51.60;14.00
52245;DHT22;55759;51.586;-1.758;2023-06-14T13:40:11;51.10;14.70
52245;DHT22;55759;51.586;-1.758;2023-06-14T13:42:37;50.90;14.50
52245;DHT22;55759;51.586;-1.758;2023-06-14T13:45:03;50.80;14.50
52245;DHT22;55759;51.586;-1.758;2023-06-14T13:47:29;50.90;14.10
52245;DHT22;55759;51.586;-1.758;2023-06-14T13:49:55;50.70;14.50
52245;DHT22;55759;51.586;-1.758;2023-06-14T13:52:21;50.70;14.70
52245;DHT22;55759;51.586;-1.758;2023-06-14T13:54:46;50.90;14.50
52245;DHT22;55759;51.586;-1.758;2023-06-14T13:57:12;51.30;14.90
52245;DHT22;55759;51.586;-1.758;2023-06-14T13:59:38;51.40;14.40
52245;DHT22;55759;51.586;-1.758;2023-06-14T14:02:04;49.50;14.90
52245;DHT22;55759;51.586;-1.758;2023-06-14T14:04:31;46.60;16.20
52245;DHT22;55759;51.586;-1.758;2023-06-14T14:06:56;46.10;17.00
52245;DHT22;55759;51.586;-1.758;2023-06-14T14:09:22;47.30;16.30
52245;DHT22;55759;51.586;-1.758;2023-06-14T14:11:47;48.50;15.70
52245;DHT22;55759;51.586;-1.758;2023-06-14T14:14:14;49.20;15.10
52245;DHT22;55759;51.586;-1.758;2023-06-14T14:16:39;49.40;15.00
52245;DHT22;55759;51.586;-1.758;2023-06-14T14:19:05;49.80;15.10
52245;DHT22;55759;51.586;-1.758;2023-06-14T14:21:31;50.80;14.30
52245;DHT22;55759;51.586;-1.758;2023-06-14T14:23:57;51.50;13.90
52245;DHT22;55759;51.586;-1.758;2023-06-14T14:26:23;51.00;14.50
52245;DHT22;55759;51.586;-1.758;2023-06-14T14:28:50;50.60;14.70
52245;DHT22;55759;51.586;-1.758;2023-06-14T14:31:15;50.50;14.60
52245;DHT22;55759;51.586;-1.758;2023-06-14T14:33:41;50.80;14.20
52245;DHT22;55759;51.586;-1.758;2023-06-14T14:36:07;51.30;14.40
52245;DHT22;55759;51.586;-1.758;2023-06-14T14:38:33;52.00;14.40
52245;DHT22;55759;51.586;-1.758;2023-06-14T14:41:00;52.90;13.50
52245;DHT22;55759;51.586;-1.758;2023-06-14T14:43:26;51.60;13.70
52245;DHT22;55759;51.586;-1.758;2023-06-14T14:45:52;50.40;14.40
52245;DHT22;55759;51.586;-1.758;2023-06-14T14:48:17;47.80;15.60
52245;DHT22;55759;51.586;-1.758;2023-06-14T14:50:43;46.00;16.70
52245;DHT22;55759;51.586;-1.758;2023-06-14T14:53:09;46.20;17.10
52245;DHT22;55759;51.586;-1.758;2023-06-14T14:55:34;47.30;16.20
52245;DHT22;55759;51.586;-1.758;2023-06-14T14:58:02;48.40;15.80
52245;DHT22;55759;51.586;-1.758;2023-06-14T15:00:28;49.10;15.10
52245;DHT22;55759;51.586;-1.758;2023-06-14T15:02:54;48.60;15.40
52245;DHT22;55759;51.586;-1.758;2023-06-14T15:05:19;48.50;15.60
52245;DHT22;55759;51.586;-1.758;2023-06-14T15:07:45;49.20;15.80
52245;DHT22;55759;51.586;-1.758;2023-06-14T15:10:11;50.00;14.90
52245;DHT22;55759;51.586;-1.758;2023-06-14T15:12:37;51.00;14.60
52245;DHT22;55759;51.586;-1.758;2023-06-14T15:15:03;51.60;14.20
52245;DHT22;55759;51.586;-1.758;2023-06-14T15:17:29;52.00;14.00
52245;DHT22;55759;51.586;-1.758;2023-06-14T15:19:54;52.30;14.00
52245;DHT22;55759;51.586;-1.758;2023-06-14T15:22:20;53.10;13.40